ENST/SSJ METAR and TAF weather

Enter ICAO airport designator
Station Type Date Time Source
ENST METAR 2022/09/26 09:20 UTC NOAA

ENST 260920Z 13013G23KT 070V190 9999 FEW050 14/04 Q0994 RMK WIND 300FT 13025G42KT


Station Type Date Time Source
ENST Decoded METAR 2022/09/26 09:20 UTC NOAA

Sandnessjoen / Stokka, Norway (ENST) 65-58N 012-28E 17M
Sep 26, 2022 - 05:20 AM EDT / 2022.09.26 0920 UTC
Wind: from the SE (130 degrees) at 15 MPH (13 KT) gusting to 26 MPH (23 KT) (direction variable):0
Visibility: greater than 7 mile(s):0
Sky conditions: mostly clear
Temperature: 57 F (14 C)
Dew Point: 39 F (4 C)
Relative Humidity: 50%
Pressure (altimeter): 29.35 in. Hg (0994 hPa)
ob: ENST 260920Z 13013G23KT 070V190 9999 FEW050 14/04 Q0994 RMK WIND 300FT 13025G42KT
cycle: 9

Station Type Date Time Source
ENST TAF UTC NOAA

Error!

Example: see airport list